createdAt,value
2018-12-18T00:00:10.464Z,54.17
2018-12-18T00:02:41.221Z,57.05
2018-12-18T00:05:18.194Z,55.63
2018-12-18T00:07:48.963Z,58.60
2018-12-18T00:10:19.720Z,72.13
2018-12-18T00:12:50.481Z,63.47
2018-12-18T00:15:21.259Z,68.00
2018-12-18T00:17:52.095Z,58.93
2018-12-18T00:20:22.867Z,60.53
2018-12-18T00:22:53.629Z,75.23
2018-12-18T00:25:24.400Z,60.20
2018-12-18T00:27:55.155Z,46.23
2018-12-18T00:30:25.929Z,59.00
2018-12-18T00:32:56.750Z,56.13
2018-12-18T00:35:27.986Z,58.60
2018-12-18T00:37:58.743Z,50.40
2018-12-18T00:40:29.534Z,64.57
2018-12-18T00:43:00.293Z,51.47
2018-12-18T00:45:31.291Z,52.70
2018-12-18T00:48:02.030Z,59.60
2018-12-18T00:50:32.902Z,63.63
2018-12-18T00:53:03.657Z,52.07
2018-12-18T00:55:34.532Z,56.80
2018-12-18T00:58:05.268Z,51.90
2018-12-18T01:00:36.140Z,64.70
2018-12-18T01:03:06.881Z,52.37
2018-12-18T01:05:37.651Z,58.20
2018-12-18T01:08:08.414Z,59.67
2018-12-18T01:10:39.589Z,54.63
2018-12-18T01:13:10.494Z,50.90
2018-12-18T01:15:41.241Z,59.60
2018-12-18T01:18:11.981Z,50.37
2018-12-18T01:20:42.738Z,50.63
2018-12-18T01:23:13.450Z,61.17
2018-12-18T01:25:44.201Z,47.73
2018-12-18T01:28:14.957Z,58.00
2018-12-18T01:30:45.835Z,61.03
2018-12-18T01:33:16.581Z,63.50
2018-12-18T01:35:47.317Z,57.87
2018-12-18T01:38:18.053Z,50.80
2018-12-18T01:40:48.833Z,60.83
2018-12-18T01:43:19.595Z,76.50
2018-12-18T01:45:50.348Z,50.67
2018-12-18T01:48:21.074Z,55.30
2018-12-18T01:50:51.846Z,47.77
2018-12-18T01:53:22.560Z,56.07
2018-12-18T01:55:53.524Z,58.97
2018-12-18T01:58:31.180Z,50.70
2018-12-18T02:01:01.933Z,51.95
2018-12-18T02:03:32.683Z,55.93
2018-12-18T02:06:03.590Z,48.03
2018-12-18T02:08:34.320Z,46.80
2018-12-18T02:11:05.092Z,49.77
2018-12-18T02:13:35.953Z,52.77
2018-12-18T02:16:08.733Z,49.00
2018-12-18T02:18:39.494Z,48.55
2018-12-18T02:21:10.361Z,42.67
2018-12-18T02:23:41.101Z,50.97
2018-12-18T02:26:11.833Z,47.20
2018-12-18T02:28:42.573Z,47.03
2018-12-18T02:31:13.441Z,60.00
2018-12-18T02:33:44.220Z,56.57
2018-12-18T02:36:15.028Z,57.27
2018-12-18T02:38:45.955Z,48.87
2018-12-18T02:41:16.730Z,53.47
2018-12-18T02:43:47.499Z,49.20
2018-12-18T02:46:18.374Z,46.57
2018-12-18T02:48:49.112Z,49.63
2018-12-18T02:51:19.875Z,45.03
2018-12-18T02:53:50.610Z,51.43
2018-12-18T02:56:21.367Z,47.20
2018-12-18T02:58:52.110Z,46.17
2018-12-18T03:01:22.869Z,41.87
2018-12-18T03:03:53.701Z,50.93
2018-12-18T03:06:24.581Z,48.33
2018-12-18T03:08:55.417Z,49.77
2018-12-18T03:11:26.191Z,46.13
2018-12-18T03:13:56.958Z,48.20
2018-12-18T03:16:27.804Z,54.33
2018-12-18T03:18:58.564Z,47.47
2018-12-18T03:21:29.309Z,46.70
2018-12-18T03:24:00.046Z,48.90
2018-12-18T03:26:30.823Z,53.60
2018-12-18T03:29:01.697Z,45.77
2018-12-18T03:31:33.670Z,46.13
2018-12-18T03:34:04.501Z,44.18
2018-12-18T03:36:35.265Z,56.57
2018-12-18T03:39:06.024Z,48.33
2018-12-18T03:41:36.793Z,44.87
2018-12-18T03:44:14.458Z,51.30
2018-12-18T03:46:45.229Z,52.48
2018-12-18T03:49:16.004Z,50.60
2018-12-18T03:51:46.766Z,49.07
2018-12-18T03:54:17.496Z,49.80
2018-12-18T03:56:48.266Z,54.13
2018-12-18T03:59:19.002Z,47.63
2018-12-18T04:01:49.749Z,62.40
2018-12-18T04:04:20.508Z,42.90
2018-12-18T04:06:51.289Z,45.77
2018-12-18T04:09:22.039Z,43.40
2018-12-18T04:11:58.953Z,59.43
2018-12-18T04:14:29.707Z,50.67
2018-12-18T04:17:00.461Z,51.63
2018-12-18T04:19:31.210Z,47.70
2018-12-18T04:22:02.063Z,46.60
2018-12-18T04:24:32.907Z,51.50
2018-12-18T04:27:03.643Z,51.77
2018-12-18T04:29:34.396Z,57.17
2018-12-18T04:32:05.157Z,53.77
2018-12-18T04:34:42.712Z,55.17
2018-12-18T04:37:08.733Z,49.60
2018-12-18T04:39:39.473Z,51.47
2018-12-18T04:42:10.205Z,51.07
2018-12-18T04:44:40.927Z,48.00
2018-12-18T04:47:11.773Z,44.63
2018-12-18T04:49:42.505Z,49.60
2018-12-18T04:52:20.317Z,53.60
2018-12-18T04:54:51.286Z,54.60
2018-12-18T04:57:22.056Z,57.93
2018-12-18T04:59:52.789Z,46.33
2018-12-18T05:02:23.553Z,48.73
2018-12-18T05:04:54.287Z,49.17
2018-12-18T05:07:25.134Z,54.27
2018-12-18T05:09:55.892Z,51.87
2018-12-18T05:12:26.645Z,53.67
2018-12-18T05:14:57.410Z,62.27
2018-12-18T05:17:28.156Z,60.57
2018-12-18T05:19:58.872Z,54.10
2018-12-18T05:22:29.660Z,64.37
2018-12-18T05:25:00.398Z,56.17
2018-12-18T05:27:31.183Z,56.10
2018-12-18T05:30:02.251Z,61.17
2018-12-18T05:32:33.036Z,48.25
2018-12-18T05:35:03.883Z,49.07
2018-12-18T05:37:34.662Z,66.33
2018-12-18T05:40:05.626Z,65.63
2018-12-18T05:42:36.660Z,65.73
2018-12-18T05:45:07.426Z,47.73
2018-12-18T05:47:38.175Z,49.23
2018-12-18T05:50:08.908Z,46.00
2018-12-18T05:52:39.652Z,42.77
2018-12-18T05:55:10.383Z,41.77
2018-12-18T05:57:41.144Z,41.90
2018-12-18T06:00:12.023Z,44.23
2018-12-18T06:02:42.801Z,88.17
2018-12-18T06:05:13.529Z,51.47
2018-12-18T06:07:44.306Z,42.67
2018-12-18T06:10:15.037Z,45.27
2018-12-18T06:12:46.100Z,49.93
2018-12-18T06:15:17.068Z,50.80
2018-12-18T06:17:47.829Z,44.17
2018-12-18T06:20:19.562Z,49.17
2018-12-18T06:22:50.327Z,48.73
2018-12-18T06:25:21.058Z,47.93
2018-12-18T06:27:51.937Z,53.33
2018-12-18T06:30:22.698Z,45.50
2018-12-18T06:32:53.452Z,50.77
2018-12-18T06:35:24.205Z,42.50
2018-12-18T06:37:54.978Z,49.20
2018-12-18T06:40:25.834Z,45.80
2018-12-18T06:42:56.603Z,50.13
2018-12-18T06:45:27.337Z,52.67
2018-12-18T06:47:58.078Z,45.73
2018-12-18T06:50:28.797Z,52.93
2018-12-18T06:52:59.672Z,56.13
2018-12-18T06:55:30.405Z,39.20
2018-12-18T06:58:01.193Z,44.43
2018-12-18T07:00:31.924Z,44.10
2018-12-18T07:03:02.765Z,48.93
2018-12-18T07:05:33.509Z,41.43
2018-12-18T07:08:04.285Z,51.60
2018-12-18T07:10:35.021Z,45.83
2018-12-18T07:13:05.791Z,48.50
2018-12-18T07:15:36.523Z,46.50
2018-12-18T07:18:07.288Z,49.73
2018-12-18T07:20:38.012Z,49.27
2018-12-18T07:23:08.762Z,53.20
2018-12-18T07:25:39.521Z,52.67
2018-12-18T07:28:10.299Z,51.00
2018-12-18T07:30:41.093Z,51.00
2018-12-18T07:33:11.868Z,51.17
2018-12-18T07:35:42.598Z,44.63
2018-12-18T07:38:13.646Z,56.07
2018-12-18T07:40:44.475Z,52.48
2018-12-18T07:43:15.216Z,50.43
2018-12-18T07:45:45.950Z,43.10
2018-12-18T07:48:16.733Z,47.60
2018-12-18T07:50:47.496Z,49.90
2018-12-18T07:53:18.257Z,49.83
2018-12-18T07:55:48.998Z,48.30
2018-12-18T07:58:19.796Z,49.03
2018-12-18T08:00:50.548Z,53.60
2018-12-18T08:03:21.519Z,54.23
2018-12-18T08:05:52.249Z,43.37
2018-12-18T08:08:23.057Z,55.70
2018-12-18T08:10:53.939Z,52.00
2018-12-18T08:13:24.816Z,49.03
2018-12-18T08:15:55.593Z,48.23
2018-12-18T08:18:26.507Z,48.73
2018-12-18T08:20:57.249Z,45.47
2018-12-18T08:23:28.012Z,45.60
2018-12-18T08:25:58.760Z,44.80
2018-12-18T08:28:29.548Z,43.67
2018-12-18T08:31:00.305Z,45.00
2018-12-18T08:33:31.218Z,46.00
2018-12-18T08:36:01.966Z,46.87
2018-12-18T08:38:32.718Z,47.20
2018-12-18T08:41:03.445Z,43.87
2018-12-18T08:43:34.243Z,47.00
2018-12-18T08:46:10.202Z,35.60
2018-12-18T08:48:37.754Z,49.50
2018-12-18T08:51:08.606Z,44.43
2018-12-18T08:53:39.378Z,43.43
2018-12-18T08:56:10.154Z,43.80
2018-12-18T08:58:40.918Z,50.50
2018-12-18T09:01:11.660Z,53.43
2018-12-18T09:03:43.154Z,56.53
2018-12-18T09:06:14.103Z,52.65
2018-12-18T09:08:44.873Z,62.90
2018-12-18T09:11:15.608Z,53.37
2018-12-18T09:13:46.408Z,60.20
2018-12-18T09:16:23.305Z,60.20
2018-12-18T09:18:54.049Z,61.13
2018-12-18T09:21:25.091Z,59.37
2018-12-18T09:23:55.892Z,64.07
2018-12-18T09:26:26.646Z,54.73
2018-12-18T09:28:57.427Z,49.03
2018-12-18T09:31:28.149Z,50.87
2018-12-18T09:33:58.913Z,46.50
2018-12-18T09:36:29.808Z,45.93
2018-12-18T09:39:06.835Z,46.83
2018-12-18T09:41:38.564Z,41.65
2018-12-18T09:44:11.338Z,38.88
2018-12-18T09:46:42.555Z,41.42
2018-12-18T09:49:13.450Z,38.48
2018-12-18T09:51:44.192Z,46.03
2018-12-18T09:54:14.961Z,46.77
2018-12-18T09:56:49.510Z,41.33
2018-12-18T09:59:20.302Z,43.13
2018-12-18T10:01:51.052Z,43.43
2018-12-18T10:04:21.801Z,36.73
2018-12-18T10:06:53.027Z,44.03
2018-12-18T10:09:23.816Z,42.67
2018-12-18T10:11:54.649Z,44.93
2018-12-18T10:14:25.583Z,37.37
2018-12-18T10:16:56.855Z,41.37
2018-12-18T10:19:27.651Z,38.85
2018-12-18T10:21:59.409Z,41.03
2018-12-18T10:24:30.178Z,42.95
2018-12-18T10:27:01.031Z,44.23
2018-12-18T10:29:31.817Z,45.00
2018-12-18T10:32:02.658Z,43.33
2018-12-18T10:34:33.513Z,49.33
2018-12-18T10:37:04.260Z,42.77
2018-12-18T10:39:35.026Z,42.10
2018-12-18T10:42:05.890Z,47.00
2018-12-18T10:44:36.699Z,38.63
2018-12-18T10:47:07.433Z,39.53
2018-12-18T10:49:38.217Z,45.50
2018-12-18T10:52:08.959Z,41.30
2018-12-18T10:54:39.789Z,51.00
2018-12-18T11:00:19.590Z,47.30
2018-12-18T11:02:50.388Z,46.10
2018-12-18T11:05:21.365Z,42.50
2018-12-18T11:07:52.092Z,54.87
2018-12-18T11:10:22.874Z,48.40
2018-12-18T11:12:59.686Z,48.90
2018-12-18T11:15:30.420Z,51.42
2018-12-18T11:18:01.257Z,53.57
2018-12-18T11:20:32.018Z,45.47
2018-12-18T11:23:02.793Z,42.00
2018-12-18T11:25:33.550Z,38.33
2018-12-18T11:28:04.417Z,43.93
2018-12-18T11:30:35.252Z,42.77
2018-12-18T11:33:05.989Z,45.30
2018-12-18T11:35:36.878Z,52.03
2018-12-18T11:38:07.617Z,42.30
2018-12-18T11:40:38.463Z,49.23
2018-12-18T11:43:09.201Z,40.07
2018-12-18T11:45:40.069Z,40.40
2018-12-18T11:48:10.972Z,43.00
2018-12-18T11:50:41.708Z,47.37
2018-12-18T11:53:12.439Z,38.73
2018-12-18T11:55:43.184Z,47.03
2018-12-18T11:58:13.950Z,41.17
2018-12-18T12:00:44.733Z,45.40
2018-12-18T12:03:15.482Z,44.20
2018-12-18T12:05:46.225Z,46.63
2018-12-18T12:08:16.956Z,41.30
2018-12-18T12:10:47.832Z,39.47
2018-12-18T12:13:18.587Z,36.97
2018-12-18T12:15:49.344Z,35.70
2018-12-18T12:18:20.066Z,49.60
2018-12-18T12:20:50.814Z,43.13
2018-12-18T12:23:21.593Z,37.27
2018-12-18T12:25:52.341Z,38.43
2018-12-18T12:28:23.072Z,40.93
2018-12-18T12:30:53.793Z,34.00
2018-12-18T12:33:24.625Z,32.20
2018-12-18T12:35:55.409Z,37.10
2018-12-18T12:38:26.153Z,38.50
2018-12-18T12:40:56.881Z,38.33
2018-12-18T12:43:27.629Z,34.33
2018-12-18T12:45:58.463Z,38.60
2018-12-18T12:48:31.217Z,40.77
2018-12-18T12:51:01.965Z,35.35
2018-12-18T12:53:32.723Z,38.40
2018-12-18T12:56:03.509Z,39.77
2018-12-18T12:58:34.252Z,35.57
2018-12-18T13:01:04.985Z,36.40
2018-12-18T13:03:35.711Z,40.83
2018-12-18T13:06:06.501Z,35.13
2018-12-18T13:08:37.247Z,45.27
2018-12-18T13:11:08.048Z,32.47
2018-12-18T13:13:38.822Z,34.73
2018-12-18T13:16:09.586Z,36.40
2018-12-18T13:18:40.321Z,32.77
2018-12-18T13:21:11.105Z,30.43
2018-12-18T13:23:41.823Z,34.20
2018-12-18T13:26:12.608Z,32.13
2018-12-18T13:28:43.357Z,30.03
2018-12-18T13:31:14.165Z,33.03
2018-12-18T13:33:44.916Z,31.70
2018-12-18T13:39:19.602Z,28.55
2018-12-18T13:41:50.576Z,25.47
2018-12-18T13:44:21.320Z,28.23
2018-12-18T13:46:52.053Z,27.53
2018-12-18T13:49:22.789Z,22.20
2018-12-18T13:51:53.588Z,22.20
2018-12-18T13:54:24.313Z,24.33
2018-12-18T13:56:55.061Z,24.23
2018-12-18T13:59:25.790Z,29.60
2018-12-18T14:01:56.639Z,23.60
2018-12-18T14:04:27.366Z,24.47
2018-12-18T14:06:58.168Z,25.00
2018-12-18T14:09:28.897Z,27.43
2018-12-18T14:11:59.669Z,28.63
2018-12-18T14:14:30.427Z,27.13
2018-12-18T14:17:01.297Z,21.13
2018-12-18T14:19:32.041Z,24.40
2018-12-18T14:22:02.794Z,23.77
2018-12-18T14:24:33.539Z,23.30
2018-12-18T14:27:04.329Z,24.70
2018-12-18T14:29:35.058Z,24.37
2018-12-18T14:32:05.813Z,24.57
2018-12-18T14:34:36.530Z,22.57
2018-12-18T14:37:07.313Z,26.77
2018-12-18T14:39:38.036Z,27.40
2018-12-18T14:42:08.794Z,23.97
2018-12-18T14:44:39.547Z,27.90
2018-12-18T14:47:10.308Z,23.30
2018-12-18T14:49:41.031Z,21.47
2018-12-18T14:52:11.791Z,27.53
2018-12-18T14:54:42.637Z,22.40
2018-12-18T14:57:13.442Z,20.40
2018-12-18T14:59:51.256Z,23.37
2018-12-18T15:02:21.994Z,22.48
2018-12-18T15:04:52.758Z,25.90
2018-12-18T15:07:23.494Z,27.33
2018-12-18T15:09:54.213Z,22.33
2018-12-18T15:12:24.974Z,22.80
2018-12-18T15:14:55.817Z,24.10
2018-12-18T15:17:26.576Z,26.07
2018-12-18T15:19:57.297Z,23.37
2018-12-18T15:22:28.081Z,26.53
2018-12-18T15:24:58.800Z,25.47
2018-12-18T15:27:29.592Z,21.07
2018-12-18T15:30:00.442Z,24.70
2018-12-18T15:32:31.311Z,22.60
2018-12-18T15:35:02.355Z,26.53
2018-12-18T15:37:33.127Z,26.17
2018-12-18T15:40:04.145Z,23.80
2018-12-18T15:42:34.881Z,24.63
2018-12-18T15:45:05.721Z,22.27
2018-12-18T15:47:36.516Z,23.63
2018-12-18T15:50:07.289Z,24.60
2018-12-18T15:52:38.040Z,24.83
2018-12-18T15:55:08.806Z,20.70
2018-12-18T15:57:39.561Z,22.40
2018-12-18T16:00:10.293Z,22.30
2018-12-18T16:02:41.045Z,25.63
2018-12-18T16:05:11.792Z,26.93
2018-12-18T16:07:42.587Z,25.10
2018-12-18T16:10:13.335Z,22.80
2018-12-18T16:12:44.205Z,24.60
2018-12-18T16:15:14.949Z,21.30
2018-12-18T16:17:45.828Z,24.93
2018-12-18T16:20:16.596Z,21.10
2018-12-18T16:22:47.392Z,25.97
2018-12-18T16:25:18.124Z,22.87
2018-12-18T16:27:55.893Z,20.40
2018-12-18T16:30:26.633Z,20.40
2018-12-18T16:32:57.368Z,22.87
2018-12-18T16:35:28.308Z,22.70
2018-12-18T16:37:59.221Z,25.20
2018-12-18T16:40:38.169Z,23.67
2018-12-18T16:43:09.082Z,25.20
2018-12-18T16:45:39.824Z,23.17
2018-12-18T16:48:10.618Z,28.07
2018-12-18T16:50:41.337Z,27.80
2018-12-18T16:53:12.210Z,51.83
2018-12-18T16:55:43.172Z,66.97
2018-12-18T16:58:13.952Z,72.73
2018-12-18T17:00:44.692Z,28.50
2018-12-18T17:03:15.648Z,20.63
2018-12-18T17:05:46.432Z,29.70
2018-12-18T17:08:17.217Z,24.90
2018-12-18T17:10:48.108Z,23.23
2018-12-18T17:13:18.925Z,93.70
2018-12-18T17:15:49.654Z,23.47
2018-12-18T17:18:20.454Z,200.33
2018-12-18T17:20:58.120Z,30.30
2018-12-18T17:23:28.867Z,31.27
2018-12-18T17:25:59.603Z,25.87
2018-12-18T17:28:30.366Z,30.90
2018-12-18T17:31:01.129Z,61.27
2018-12-18T17:33:31.923Z,24.33
2018-12-18T17:36:02.677Z,23.20
2018-12-18T17:38:33.793Z,25.43
2018-12-18T17:41:04.766Z,22.80
2018-12-18T17:43:35.887Z,22.87
2018-12-18T17:46:06.641Z,27.67
2018-12-18T17:48:37.415Z,25.03
2018-12-18T17:51:08.138Z,29.60
2018-12-18T17:53:39.021Z,24.23
2018-12-18T17:56:09.761Z,27.10
2018-12-18T17:58:40.576Z,24.83
2018-12-18T18:01:11.346Z,23.43
2018-12-18T18:03:42.104Z,22.63
2018-12-18T18:06:12.837Z,24.10
2018-12-18T18:08:43.566Z,24.93
2018-12-18T18:11:14.301Z,24.30
2018-12-18T18:13:45.068Z,20.47
2018-12-18T18:16:15.893Z,24.83
2018-12-18T18:18:46.688Z,22.17
2018-12-18T18:21:17.552Z,23.20
2018-12-18T18:23:48.447Z,24.23
2018-12-18T18:26:19.314Z,22.80
2018-12-18T18:28:50.079Z,19.37
2018-12-18T18:31:20.788Z,23.13
2018-12-18T18:33:51.598Z,26.27
2018-12-18T18:36:22.346Z,22.73
2018-12-18T18:38:53.156Z,21.83
2018-12-18T18:41:23.905Z,24.90
2018-12-18T18:43:54.873Z,21.77
2018-12-18T18:46:25.642Z,20.70
2018-12-18T18:48:56.433Z,27.30
2018-12-18T18:51:27.172Z,24.50
2018-12-18T18:53:57.921Z,26.43
2018-12-18T18:56:28.763Z,22.53
2018-12-18T18:58:59.744Z,24.97
2018-12-18T19:01:30.502Z,24.50
2018-12-18T19:04:01.588Z,23.40
2018-12-18T19:06:32.353Z,24.23
2018-12-18T19:09:05.319Z,22.37
2018-12-18T19:11:36.072Z,23.38
2018-12-18T19:14:06.936Z,28.37
2018-12-18T19:16:37.674Z,21.73
2018-12-18T19:19:08.448Z,43.00
2018-12-18T19:21:39.200Z,26.63
2018-12-18T19:24:09.946Z,24.90
2018-12-18T19:26:40.684Z,26.60
2018-12-18T19:29:11.446Z,23.40
2018-12-18T19:31:42.181Z,29.57
2018-12-18T19:34:12.929Z,22.87
2018-12-18T19:36:43.970Z,73.37
2018-12-18T19:39:14.721Z,25.77
2018-12-18T19:41:45.506Z,25.20
2018-12-18T19:44:16.254Z,23.30
2018-12-18T19:46:47.036Z,26.77
2018-12-18T19:49:17.879Z,24.10
2018-12-18T19:51:48.757Z,25.77
2018-12-18T19:54:19.503Z,24.90
2018-12-18T19:56:50.386Z,22.10
2018-12-18T19:59:21.206Z,24.47
2018-12-18T20:01:51.955Z,25.30
2018-12-18T20:04:22.704Z,28.33
2018-12-18T20:06:53.450Z,28.27
2018-12-18T20:12:28.316Z,23.07
2018-12-18T20:14:59.064Z,24.27
2018-12-18T20:17:29.805Z,22.17
2018-12-18T20:20:00.533Z,26.70
2018-12-18T20:22:31.552Z,29.67
2018-12-18T20:25:03.600Z,28.75
2018-12-18T20:27:34.338Z,26.00
2018-12-18T20:30:05.520Z,25.83
2018-12-18T20:32:36.274Z,29.02
2018-12-18T20:35:07.138Z,31.10
2018-12-18T20:37:37.936Z,29.40
2018-12-18T20:40:08.849Z,24.67
2018-12-18T20:42:39.584Z,29.17
2018-12-18T20:45:10.328Z,29.40
2018-12-18T20:47:41.054Z,30.40
2018-12-18T20:50:11.892Z,26.77
2018-12-18T20:52:42.622Z,26.13
2018-12-18T20:55:13.355Z,31.93
2018-12-18T20:57:44.151Z,25.10
2018-12-18T21:00:15.140Z,24.37
2018-12-18T21:02:45.882Z,24.85
2018-12-18T21:05:16.825Z,27.17
2018-12-18T21:07:47.655Z,21.20
2018-12-18T21:10:18.517Z,24.60
2018-12-18T21:12:49.313Z,27.97
2018-12-18T21:15:20.122Z,28.10
2018-12-18T21:17:50.981Z,29.70
2018-12-18T21:20:21.782Z,32.47
2018-12-18T21:22:52.588Z,27.77
2018-12-18T21:25:23.559Z,31.20
2018-12-18T21:27:54.371Z,29.18
2018-12-18T21:33:03.109Z,27.10
2018-12-18T21:35:34.028Z,28.00
2018-12-18T21:38:04.857Z,24.67
2018-12-18T21:40:35.706Z,25.97
2018-12-18T21:43:06.493Z,30.00
2018-12-18T21:45:37.403Z,36.30
2018-12-18T21:48:08.197Z,23.50
2018-12-18T21:50:39.062Z,32.27
2018-12-18T21:53:09.862Z,23.90
2018-12-18T21:55:40.699Z,25.60
2018-12-18T21:58:11.553Z,27.73
2018-12-18T22:00:42.373Z,23.70
2018-12-18T22:03:13.169Z,28.07
2018-12-18T22:05:44.028Z,24.17
2018-12-18T22:08:14.854Z,24.17
2018-12-18T22:10:45.681Z,25.47
2018-12-18T22:13:16.485Z,23.00
2018-12-18T22:15:47.541Z,24.03
2018-12-18T22:18:18.349Z,23.32
2018-12-18T22:20:49.202Z,22.23
2018-12-18T22:23:20.005Z,23.10
2018-12-18T22:25:50.809Z,25.97
2018-12-18T22:28:21.549Z,23.80
2018-12-18T22:30:52.285Z,28.97
2018-12-18T22:33:23.021Z,28.83
2018-12-18T22:35:53.785Z,27.10
2018-12-18T22:38:24.609Z,25.40
2018-12-18T22:40:55.452Z,26.47
2018-12-18T22:43:26.284Z,28.60
2018-12-18T22:45:57.019Z,28.60
2018-12-18T22:48:27.742Z,28.37
2018-12-18T22:50:58.502Z,27.53
2018-12-18T22:53:29.331Z,25.77
2018-12-18T22:56:00.085Z,24.23
2018-12-18T22:58:30.829Z,26.10
2018-12-18T23:01:03.706Z,25.50
2018-12-18T23:03:34.556Z,26.93
2018-12-18T23:06:05.429Z,25.20
2018-12-18T23:08:36.282Z,25.70
2018-12-18T23:11:07.152Z,23.10
2018-12-18T23:16:45.635Z,29.40
2018-12-18T23:19:16.470Z,29.20
2018-12-18T23:21:47.336Z,27.57
2018-12-18T23:24:18.156Z,31.60
2018-12-18T23:26:49.048Z,25.97
2018-12-18T23:29:19.947Z,29.00
2018-12-18T23:31:50.802Z,26.00
2018-12-18T23:34:21.604Z,25.37
2018-12-18T23:36:52.504Z,29.30
2018-12-18T23:39:23.307Z,29.17
2018-12-18T23:41:54.634Z,34.73
2018-12-18T23:44:25.443Z,27.58
2018-12-18T23:46:56.368Z,36.10
2018-12-18T23:49:27.180Z,29.10
2018-12-18T23:51:57.987Z,34.53
2018-12-18T23:54:28.785Z,30.83
2018-12-18T23:56:59.627Z,32.20
2018-12-18T23:59:30.503Z,34.60
